Hialeah, FL (33010)

9:38 AM EST on February 09, 2016 (GMT -0500)
U of Miami Health System WeatherSTEM | | Change Station
CLOSE
Current Station
Personal Weather Station
Location: Miami, FL
Elevation: 68 ft
Nearby Weather Stations

Elev 68 ft 25.79 °N, 80.22 °W | Updated 13 minutes ago

Overcast
Overcast
62.7 °F
Feels Like 62.7 °F
N
15.0
Wind Variable Wind from SW
Gusts 19.0 mph

Today
High -- | Low -- °F
--% Chance of Precip.
Yesterday
High -- | Low -- °F
Precip. -- in
Pressure 30.09 in
Visibility 10.0 miles
Clouds Few 3500 ft
Scattered Clouds 6000 ft
Overcast 25000 ft
Dew Point 47 °F
Humidity 57%
Rainfall 0.00 in
Snow Depth Not available.
7:00 AM 6:10 PM
New Moon, 1% visible
METAR KMIA 091353Z COR 29010G17KT 10SM FEW035 SCT060 OVC250 17/08 A3009 RMK AO2 SLP187 T01720083
Pressure 30.09 in
Visibility 10.0 miles
Clouds Few 3500 ft
Scattered Clouds 6000 ft
Overcast 25000 ft
Dew Point 47 °F
Humidity 57%
Rainfall 0.00 in
Snow Depth Not available.
7:00 AM 6:10 PM
New Moon, 1% visible
METAR KMIA 091353Z COR 29010G17KT 10SM FEW035 SCT060 OVC250 17/08 A3009 RMK AO2 SLP187 T01720083

10-Day Weather Forecast

Almanac

Astronomy

Feb. 09, 2016 Rise Set
Actual Time
Civil Twilight
Nautical Twilight
Astronomical Twilight
Moon
Length of Visible Light
Length of Day
Tomorrow will be .
, % of the Moon is Illuminated

Today's Extremes

State Highs State Lows

Community

WunderPhotos

Upload Photos

1,891,606 photos uploaded!

WunderBlog® & News

Nearby

Air Quality

  Air Quality AQ Index Pollutant
Not available.

Snow Depth

Station Depth Elevation

Earthquake Activity

City Distance Mag. Time & Date
Minimum magnitude displayed is 2.5.

Coastal Water Temperatures

Place Temperature

Stations

Nearby Weather Stations

Station Location Temp. Windchill Dew Point Humidity Wind Precip. Elev Updated Type
                   

Watches & Warnings

There are currently no watches in effect.